Time;durP1;ratioP1;P1;durP2;ratioP2;P2;SDS_P1;SDS_P2;PMS_P1;PMS_P2;Temp;Humidity;BMP_temperature;BMP_pressure;BME280_temperature;BME280_humidity;BME280_pressure;Samples;Min_cycle;Max_cycle;Signal;HPM_P1;HPM_P2
2023/06/24 00:02:24;;;;;;;5.60;5.10;;;;;;;19.21;63.37;102179.41;4986295;28;97147;-84
2023/06/24 00:04:51;;;;;;;6.37;5.53;;;;;;;19.17;63.19;102173.34;4969420;28;99109;-83
2023/06/24 00:07:17;;;;;;;5.60;5.10;;;;;;;19.15;62.90;102161.94;4987060;28;97472;-83
2023/06/24 00:09:42;;;;;;;6.20;5.60;;;;;;;19.10;62.92;102179.44;4987858;28;96681;-83
2023/06/24 00:12:08;;;;;;;6.00;5.47;;;;;;;19.05;63.09;102171.84;4988086;28;97295;-83
2023/06/24 00:14:33;;;;;;;7.13;5.67;;;;;;;18.99;63.18;102189.91;4968834;28;99824;-83
2023/06/24 00:16:58;;;;;;;6.87;5.83;;;;;;;18.95;63.17;102181.03;4986504;28;102683;-83
2023/06/24 00:19:25;;;;;;;6.00;5.27;;;;;;;18.92;63.24;102179.28;4968544;28;97515;-85
2023/06/24 00:21:52;;;;;;;5.97;5.47;;;;;;;18.89;63.38;102183.09;4986854;28;97122;-84
2023/06/24 00:24:25;;;;;;;6.13;5.60;;;;;;;18.84;63.33;102183.88;4992320;28;99042;-83
2023/06/24 00:26:54;;;;;;;5.80;5.30;;;;;;;18.79;63.39;102181.84;4994991;28;97765;-85
2023/06/24 00:29:19;;;;;;;5.80;5.33;;;;;;;18.71;63.35;102170.50;4982939;28;96656;-84
2023/06/24 00:31:45;;;;;;;5.10;4.70;;;;;;;18.67;63.25;102175.59;5001630;28;97296;-83
2023/06/24 00:34:10;;;;;;;6.67;5.87;;;;;;;18.63;63.36;102192.56;4998548;28;97684;-85
2023/06/24 00:36:36;;;;;;;6.03;5.53;;;;;;;18.59;63.25;102186.50;4977655;28;100292;-83
2023/06/24 00:39:03;;;;;;;5.70;5.20;;;;;;;18.55;63.30;102211.09;4999452;28;97339;-85
2023/06/24 00:41:29;;;;;;;6.60;6.10;;;;;;;18.52;63.24;102198.16;4998895;28;96990;-84
2023/06/24 00:43:57;;;;;;;6.40;5.70;;;;;;;18.48;63.44;102199.69;4995232;28;98229;-82
2023/06/24 00:46:25;;;;;;;6.47;5.87;;;;;;;18.42;63.36;102204.50;4984908;28;96836;-83
2023/06/24 00:48:51;;;;;;;7.10;6.37;;;;;;;18.41;63.32;102244.78;4965677;28;98796;-85
2023/06/24 00:51:16;;;;;;;6.20;5.70;;;;;;;18.31;63.43;102221.22;4970448;28;97531;-82
2023/06/24 00:53:42;;;;;;;6.77;6.27;;;;;;;18.34;63.55;102197.94;4970403;28;99703;-83
2023/06/24 00:56:07;;;;;;;9.90;5.80;;;;;;;18.32;63.40;102209.59;4985619;28;98590;-83
2023/06/24 00:58:34;;;;;;;6.20;5.60;;;;;;;18.34;63.49;102209.84;4967437;28;97386;-83
2023/06/24 01:01:01;;;;;;;6.10;5.60;;;;;;;18.30;63.29;102191.84;4973340;28;96948;-83
2023/06/24 01:03:27;;;;;;;5.87;5.37;;;;;;;18.26;63.17;102210.88;4985925;28;97933;-83
2023/06/24 01:05:54;;;;;;;7.50;6.07;;;;;;;18.24;63.34;102188.31;4987677;28;98566;-83
2023/06/24 01:08:22;;;;;;;6.77;6.07;;;;;;;18.18;63.30;102190.34;4974156;28;97237;-82
2023/06/24 01:10:49;;;;;;;6.03;5.57;;;;;;;18.10;63.36;102198.47;4974766;28;97210;-83
2023/06/24 01:13:15;;;;;;;7.47;5.70;;;;;;;18.07;63.33;102207.81;4976127;28;99593;-83
2023/06/24 01:15:40;;;;;;;6.60;6.00;;;;;;;18.01;63.39;102200.72;4991746;28;97748;-83
2023/06/24 01:18:11;;;;;;;7.00;6.00;;;;;;;17.95;63.43;102190.34;4992247;28;97214;-82
2023/06/24 01:20:52;;;;;;;6.80;6.20;;;;;;;17.90;63.62;102195.94;4966476;28;97119;-83
2023/06/24 01:23:55;;;;;;;6.17;5.67;;;;;;;17.87;63.49;102199.72;4968338;28;99321;-82
2023/06/24 01:26:35;;;;;;;5.70;5.30;;;;;;;17.78;63.58;102197.94;4992862;28;96815;-83
2023/06/24 01:29:30;;;;;;;5.60;5.10;;;;;;;17.76;63.36;102211.59;4994694;28;97182;-83
2023/06/24 01:32:11;;;;;;;5.90;5.43;;;;;;;17.72;63.42;102199.19;4993425;28;96713;-84
2023/06/24 01:34:44;;;;;;;5.67;5.20;;;;;;;17.67;63.43;102217.41;4993371;28;98904;-82
2023/06/24 01:37:27;;;;;;;6.37;5.77;;;;;;;17.68;63.50;102207.81;4981051;28;99347;-84
2023/06/24 01:40:08;;;;;;;7.03;6.33;;;;;;;17.66;63.58;102213.13;4971616;28;97425;-83
2023/06/24 01:42:37;;;;;;;5.97;5.47;;;;;;;17.63;63.55;102210.56;4993991;28;97173;-82
2023/06/24 01:45:05;;;;;;;6.00;5.50;;;;;;;17.60;63.52;102204.00;4995198;28;96902;-83
2023/06/24 01:47:31;;;;;;;6.60;6.00;;;;;;;17.54;63.34;102225.47;4972489;28;99401;-83
2023/06/24 01:50:01;;;;;;;6.53;5.93;;;;;;;17.49;63.47;102201.19;4965844;28;97142;-84
2023/06/24 01:52:29;;;;;;;6.47;5.70;;;;;;;17.47;63.58;102197.38;4967131;28;96656;-84
2023/06/24 01:54:55;;;;;;;6.70;5.43;;;;;;;17.46;63.59;102202.16;4992846;28;97927;-82
2023/06/24 01:57:23;;;;;;;6.73;5.60;;;;;;;17.42;63.46;102201.66;4979432;28;99561;-82
2023/06/24 01:59:51;;;;;;;5.77;5.27;;;;;;;17.40;63.50;102242.38;4993436;28;96916;-83
2023/06/24 02:02:20;;;;;;;7.10;5.50;;;;;;;17.35;63.52;102206.94;4992884;28;96853;-83
2023/06/24 02:04:45;;;;;;;5.90;5.23;;;;;;;17.27;63.75;102209.47;4987921;28;97573;-83
2023/06/24 02:07:13;;;;;;;5.77;5.27;;;;;;;17.22;63.60;102213.75;4990482;28;98361;-84
2023/06/24 02:09:40;;;;;;;6.03;5.53;;;;;;;17.21;63.56;102220.56;4964871;28;97175;-82
2023/06/24 02:12:09;;;;;;;5.60;5.20;;;;;;;17.19;63.57;102227.88;4977564;28;97268;-83
2023/06/24 02:14:36;;;;;;;7.10;6.50;;;;;;;17.15;63.72;102216.22;4995672;28;97553;-82
2023/06/24 02:17:04;;;;;;;5.93;5.43;;;;;;;17.16;63.72;102210.19;4978450;28;99486;-83
2023/06/24 02:19:31;;;;;;;7.77;5.83;;;;;;;17.13;63.73;102216.75;4971838;28;96661;-83
2023/06/24 02:21:59;;;;;;;5.93;5.43;;;;;;;17.10;63.65;102211.44;4990018;28;97390;-84
2023/06/24 02:24:26;;;;;;;6.37;5.60;;;;;;;17.07;63.76;102204.84;4988057;28;99955;-83
2023/06/24 02:26:53;;;;;;;5.67;5.27;;;;;;;17.05;63.62;102209.38;4986454;28;98814;-83
2023/06/24 02:29:21;;;;;;;6.60;5.70;;;;;;;17.08;63.72;102225.06;4991452;28;97038;-83
2023/06/24 02:31:46;;;;;;;6.03;5.53;;;;;;;17.09;63.92;102219.00;4975288;28;97419;-83
2023/06/24 02:34:12;;;;;;;6.37;5.77;;;;;;;17.08;63.71;102234.16;4990875;28;99071;-82
2023/06/24 02:36:38;;;;;;;6.53;6.03;;;;;;;17.04;63.67;102216.97;4975122;28;99115;-83
2023/06/24 02:39:04;;;;;;;7.67;5.87;;;;;;;17.03;63.36;102223.03;4991351;28;97001;-83
2023/06/24 02:41:29;;;;;;;6.10;5.60;;;;;;;16.96;63.11;102207.56;4988203;28;97725;-84
2023/06/24 02:43:54;;;;;;;6.47;5.97;;;;;;;16.94;63.42;102215.66;4991820;28;97597;-83
2023/06/24 02:46:21;;;;;;;5.87;5.40;;;;;;;16.91;63.69;102222.19;4988924;28;97501;-83
2023/06/24 02:48:49;;;;;;;5.90;5.43;;;;;;;16.91;63.55;102252.03;4974625;28;96934;-84
2023/06/24 02:51:15;;;;;;;8.90;6.20;;;;;;;16.86;63.67;102228.50;4960057;28;96656;-83
2023/06/24 02:53:41;;;;;;;5.57;5.17;;;;;;;16.89;63.66;102226.72;4986096;28;97623;-82
2023/06/24 02:56:08;;;;;;;5.27;4.83;;;;;;;16.92;63.59;102231.31;4963538;28;100709;-82
2023/06/24 02:58:38;;;;;;;5.83;5.33;;;;;;;16.89;63.47;102223.97;4973449;28;97310;-83
2023/06/24 03:01:03;;;;;;;8.63;5.30;;;;;;;16.87;63.37;102226.47;4974280;28;97244;-82
2023/06/24 03:03:29;;;;;;;6.63;6.13;;;;;;;16.82;63.32;102233.53;4972105;28;99061;-83
2023/06/24 03:05:58;;;;;;;6.07;5.47;;;;;;;16.75;63.45;102225.69;4988087;28;98314;-82
2023/06/24 03:08:24;;;;;;;6.03;5.53;;;;;;;16.71;63.55;102241.06;4972644;28;97850;-83
2023/06/24 03:10:51;;;;;;;11.50;5.57;;;;;;;16.66;63.62;102219.53;4989458;28;97564;-84
2023/06/24 03:13:16;;;;;;;6.87;6.00;;;;;;;16.69;63.58;102240.78;4986650;28;97995;-83
2023/06/24 03:15:42;;;;;;;6.53;5.70;;;;;;;16.63;63.57;102226.09;4990693;28;97657;-83
2023/06/24 03:18:07;;;;;;;5.57;5.07;;;;;;;16.63;63.70;102237.19;4993178;28;96925;-82
2023/06/24 03:20:38;;;;;;;6.07;5.50;;;;;;;16.58;63.45;102226.84;4967669;28;96921;-83
2023/06/24 03:23:08;;;;;;;5.53;5.00;;;;;;;16.60;63.63;102244.50;4992032;28;97981;-82
2023/06/24 03:25:34;;;;;;;6.23;5.63;;;;;;;16.56;63.74;102238.44;4971475;28;99448;-83
2023/06/24 03:28:07;;;;;;;6.27;5.77;;;;;;;16.59;63.57;102267.25;4989927;28;97721;-82
2023/06/24 03:30:33;;;;;;;6.77;6.17;;;;;;;16.57;63.51;102230.84;4975771;28;96998;-83
2023/06/24 03:32:58;;;;;;;7.10;6.40;;;;;;;16.57;63.57;102230.84;4968038;28;99580;-82
2023/06/24 03:35:24;;;;;;;6.37;5.80;;;;;;;16.50;63.65;102257.09;4987630;28;97618;-82
2023/06/24 03:37:49;;;;;;;5.93;5.37;;;;;;;16.55;63.48;102236.91;4989070;28;97091;-83
2023/06/24 03:40:14;;;;;;;6.07;5.33;;;;;;;16.48;63.47;102217.91;4988003;28;97039;-82
2023/06/24 03:42:40;;;;;;;6.63;5.77;;;;;;;16.51;63.64;102239.16;4967674;28;99603;-82
2023/06/24 03:45:05;;;;;;;7.40;5.93;;;;;;;16.53;63.69;102230.34;4992980;28;98380;-84
2023/06/24 03:47:31;;;;;;;6.00;5.60;;;;;;;16.52;63.40;102234.34;4972796;28;96801;-82
2023/06/24 03:49:56;;;;;;;6.57;5.93;;;;;;;16.52;63.71;102251.03;4986889;28;96755;-82
2023/06/24 03:52:22;;;;;;;7.13;4.90;;;;;;;16.47;63.29;102233.78;4975993;28;99594;-83
2023/06/24 03:54:47;;;;;;;5.33;4.83;;;;;;;16.49;63.56;102247.94;4987782;28;97630;-84
2023/06/24 03:57:13;;;;;;;5.97;5.47;;;;;;;16.49;63.52;102230.50;4971654;28;96843;-82
2023/06/24 03:59:38;;;;;;;5.67;5.17;;;;;;;16.45;63.59;102241.09;4971184;28;97354;-82
2023/06/24 04:02:07;;;;;;;8.10;5.67;;;;;;;16.45;63.83;102247.44;4989781;28;97340;-84
2023/06/24 04:04:36;;;;;;;6.00;5.50;;;;;;;16.54;63.80;102254.84;4970341;28;99631;-82
2023/06/24 04:07:02;;;;;;;5.90;5.30;;;;;;;16.56;63.61;102246.00;4987152;28;96682;-82
2023/06/24 04:09:29;;;;;;;6.00;5.50;;;;;;;16.61;63.81;102248.06;4972558;28;97270;-82
2023/06/24 04:11:54;;;;;;;5.40;5.00;;;;;;;16.60;63.72;102252.84;4961364;28;99511;-82
2023/06/24 04:14:19;;;;;;;5.90;5.40;;;;;;;16.57;63.79;102244.75;4990453;28;97572;-82
2023/06/24 04:16:45;;;;;;;6.20;5.70;;;;;;;16.59;63.73;102261.69;4986618;28;97059;-82
2023/06/24 04:19:11;;;;;;;6.10;5.60;;;;;;;16.57;63.87;102264.19;4983064;28;97730;-82
2023/06/24 04:21:37;;;;;;;7.13;6.47;;;;;;;16.58;63.97;102269.25;4987564;28;101260;-82
2023/06/24 04:24:03;;;;;;;6.43;5.93;;;;;;;16.62;64.18;102272.56;4985249;28;96889;-82
2023/06/24 04:26:28;;;;;;;6.40;5.90;;;;;;;16.64;64.13;102269.31;4990367;28;96674;-82
2023/06/24 04:28:53;;;;;;;7.80;6.37;;;;;;;16.65;64.16;102265.25;4991245;28;97227;-82
2023/06/24 04:31:19;;;;;;;5.97;5.47;;;;;;;16.74;64.22;102262.28;4992742;28;99332;-83
2023/06/24 04:33:44;;;;;;;5.73;5.33;;;;;;;16.74;64.04;102254.72;4978693;28;99016;-83
2023/06/24 04:36:09;;;;;;;5.90;5.40;;;;;;;16.77;64.12;102250.97;4990871;28;96882;-84
2023/06/24 04:38:35;;;;;;;7.07;6.43;;;;;;;16.82;63.97;102261.31;4973995;28;97815;-82
2023/06/24 04:41:00;;;;;;;6.17;5.67;;;;;;;16.84;64.19;102256.03;4988947;28;98437;-82
2023/06/24 04:43:27;;;;;;;6.60;5.90;;;;;;;16.84;64.00;102264.38;4989728;28;97600;-82
2023/06/24 04:45:54;;;;;;;9.70;5.60;;;;;;;16.85;64.12;102263.13;4985913;28;97244;-82
2023/06/24 04:48:20;;;;;;;6.20;5.70;;;;;;;16.90;64.13;102261.63;4986313;28;97366;-84
2023/06/24 04:50:46;;;;;;;6.77;6.23;;;;;;;16.95;64.25;102283.16;4990918;28;97367;-83
2023/06/24 04:53:11;;;;;;;5.97;5.47;;;;;;;16.98;64.28;102271.03;4986147;28;100408;-82
2023/06/24 04:55:36;;;;;;;6.80;5.70;;;;;;;17.03;64.26;102268.28;4972108;28;97433;-84
2023/06/24 04:58:01;;;;;;;8.00;5.93;;;;;;;17.04;64.25;102260.69;4967119;28;97195;-82
2023/06/24 05:00:27;;;;;;;5.80;5.20;;;;;;;17.13;64.16;102266.81;4968137;28;99265;-82
2023/06/24 05:02:52;;;;;;;6.07;5.57;;;;;;;17.16;64.22;102260.25;4975706;28;100235;-83
2023/06/24 05:05:18;;;;;;;5.63;5.23;;;;;;;17.15;64.28;102303.22;4970351;28;97325;-82
2023/06/24 05:07:44;;;;;;;5.47;5.07;;;;;;;17.25;64.44;102262.06;4988151;28;97471;-83
2023/06/24 05:10:09;;;;;;;5.97;5.30;;;;;;;17.32;64.51;102269.16;4985082;28;97883;-83
2023/06/24 05:12:34;;;;;;;6.20;5.60;;;;;;;17.41;64.46;102260.59;4978881;28;100410;-84
2023/06/24 05:15:00;;;;;;;6.87;6.17;;;;;;;17.40;64.46;102259.84;4987821;28;96787;-82
2023/06/24 05:17:25;;;;;;;6.03;5.53;;;;;;;17.52;64.50;102269.75;4977617;28;96911;-83
2023/06/24 05:19:50;;;;;;;7.67;5.40;;;;;;;17.59;64.56;102269.28;4960188;28;99179;-83
2023/06/24 05:22:16;;;;;;;6.37;5.83;;;;;;;17.65;64.58;102280.41;4990850;28;98762;-83
2023/06/24 05:24:41;;;;;;;6.40;5.80;;;;;;;17.74;64.70;102267.03;4986026;28;96692;-82
2023/06/24 05:27:07;;;;;;;5.10;4.80;;;;;;;17.82;64.66;102278.44;4984854;28;97523;-82
2023/06/24 05:29:34;;;;;;;6.77;5.70;;;;;;;17.86;64.82;102273.38;4962069;28;99504;-83
2023/06/24 05:32:01;;;;;;;5.70;5.23;;;;;;;17.95;64.90;102273.16;4969064;28;99088;-83
2023/06/24 05:34:26;;;;;;;8.63;6.70;;;;;;;17.98;64.67;102267.31;4987427;28;97456;-83
2023/06/24 05:36:52;;;;;;;8.80;6.03;;;;;;;18.10;64.92;102281.25;4984112;28;96928;-84
2023/06/24 05:39:17;;;;;;;9.10;6.57;;;;;;;18.22;64.92;102285.56;4985677;28;97319;-82
2023/06/24 05:41:43;;;;;;;6.90;6.30;;;;;;;18.34;65.11;102289.88;4974524;28;99336;-81
2023/06/24 05:44:12;;;;;;;6.83;6.13;;;;;;;18.43;65.11;102282.03;4989178;28;97279;-84
2023/06/24 05:46:37;;;;;;;7.67;6.80;;;;;;;18.53;64.99;102279.75;4970919;28;97006;-82
2023/06/24 05:49:03;;;;;;;8.80;7.97;;;;;;;18.60;65.21;102296.75;4986916;28;97841;-83
2023/06/24 05:51:28;;;;;;;9.50;7.53;;;;;;;18.71;65.31;102287.59;4986663;28;97717;-82
2023/06/24 05:53:54;;;;;;;14.53;7.90;;;;;;;18.81;65.34;102279.72;4972330;28;97000;-84
2023/06/24 05:56:21;;;;;;;7.03;6.43;;;;;;;18.93;65.26;102284.00;4970205;28;97307;-82
2023/06/24 05:58:46;;;;;;;8.80;7.93;;;;;;;19.01;65.31;102271.81;4973757;28;99362;-83
2023/06/24 06:01:12;;;;;;;7.70;5.57;;;;;;;19.14;65.25;102279.63;4991003;28;97903;-80
2023/06/24 06:03:37;;;;;;;9.13;7.93;;;;;;;19.22;65.25;102284.16;4992945;28;96860;-84
2023/06/24 06:06:03;;;;;;;8.60;7.10;;;;;;;19.30;65.21;102276.78;4996672;28;97071;-83
2023/06/24 06:08:28;;;;;;;8.57;7.70;;;;;;;19.39;65.26;102259.78;4993833;28;98108;-82
2023/06/24 06:10:53;;;;;;;13.27;7.60;;;;;;;19.47;65.18;102290.69;4971456;28;100481;-82
2023/06/24 06:13:19;;;;;;;8.63;7.50;;;;;;;19.56;65.02;102268.03;4988114;28;96688;-83
2023/06/24 06:15:44;;;;;;;13.43;8.17;;;;;;;19.63;65.07;102266.75;4988012;28;96657;-83
2023/06/24 06:18:09;;;;;;;11.63;7.30;;;;;;;19.71;65.00;102265.66;4988273;28;97768;-84
2023/06/24 06:20:35;;;;;;;9.97;7.30;;;;;;;19.80;65.15;102284.91;4991752;28;98693;-82
2023/06/24 06:23:00;;;;;;;9.87;7.07;;;;;;;19.88;64.80;102269.09;4986816;28;97057;-84
2023/06/24 06:25:26;;;;;;;8.33;7.33;;;;;;;19.90;64.83;102265.78;4975962;28;96898;-83
2023/06/24 06:27:51;;;;;;;8.00;7.20;;;;;;;19.97;65.00;102268.03;4990661;28;103090;-82
2023/06/24 06:30:17;;;;;;;10.10;6.83;;;;;;;20.02;64.92;102267.25;4972426;28;100222;-83
2023/06/24 06:32:43;;;;;;;7.97;7.27;;;;;;;20.07;64.85;102267.19;4977631;28;97490;-83
2023/06/24 06:35:08;;;;;;;9.93;8.07;;;;;;;20.11;64.97;102269.72;4992363;28;97380;-84
2023/06/24 06:37:33;;;;;;;7.93;6.87;;;;;;;20.17;64.99;102282.38;4990051;28;97048;-84
2023/06/24 06:39:59;;;;;;;10.10;7.70;;;;;;;20.28;64.89;102272.38;4974394;28;102634;-84
2023/06/24 06:42:24;;;;;;;8.63;6.70;;;;;;;20.38;64.86;102265.94;4990494;28;97266;-82
2023/06/24 06:44:50;;;;;;;7.03;6.30;;;;;;;20.44;64.71;102258.28;4989595;28;97658;-82
2023/06/24 06:47:15;;;;;;;7.90;7.10;;;;;;;20.46;64.56;102261.31;4959042;28;99369;-84
2023/06/24 06:49:41;;;;;;;7.37;6.67;;;;;;;20.52;64.41;102252.84;4973749;28;96765;-82
2023/06/24 06:52:07;;;;;;;7.80;6.63;;;;;;;20.64;64.58;102277.38;4986178;28;97185;-83
2023/06/24 06:54:32;;;;;;;7.93;7.03;;;;;;;20.69;64.03;102264.63;4989402;28;97087;-83
2023/06/24 06:57:03;;;;;;;6.80;6.17;;;;;;;20.72;64.37;102258.75;4971115;28;106724;-83
2023/06/24 06:59:29;;;;;;;6.40;5.90;;;;;;;20.73;64.24;102274.25;4978549;28;99502;-83
2023/06/24 07:01:54;;;;;;;9.73;6.70;;;;;;;20.76;64.12;102273.22;4977207;28;97378;-83
2023/06/24 07:04:19;;;;;;;7.10;6.37;;;;;;;20.85;64.18;102280.50;4961428;28;97012;-83
2023/06/24 07:06:44;;;;;;;7.00;6.30;;;;;;;20.91;63.70;102290.34;4988766;28;97104;-83
2023/06/24 07:09:10;;;;;;;7.60;5.67;;;;;;;20.99;63.45;102295.34;4990608;28;97585;-83
2023/06/24 07:11:35;;;;;;;6.07;5.50;;;;;;;21.00;63.04;102317.22;4989543;28;97399;-82
2023/06/24 07:14:01;;;;;;;5.17;4.53;;;;;;;21.13;63.16;102297.75;4984890;28;98021;-83
2023/06/24 07:16:26;;;;;;;6.03;5.53;;;;;;;21.20;62.91;102282.41;4971506;28;99573;-82
2023/06/24 07:18:51;;;;;;;6.20;5.70;;;;;;;21.20;62.98;102293.59;4975027;28;102921;-83
2023/06/24 07:21:17;;;;;;;6.77;6.13;;;;;;;21.34;62.86;102307.16;4969286;28;98047;-83
2023/06/24 07:23:42;;;;;;;5.87;5.27;;;;;;;21.37;62.37;102289.31;4985606;28;96998;-82
2023/06/24 07:26:07;;;;;;;7.80;5.27;;;;;;;21.44;62.17;102293.56;4986801;28;97824;-81
2023/06/24 07:28:33;;;;;;;6.60;5.90;;;;;;;21.50;62.19;102300.59;4970488;28;99463;-83
2023/06/24 07:30:58;;;;;;;7.10;5.80;;;;;;;21.58;61.88;102303.53;4988291;28;97168;-83
2023/06/24 07:33:24;;;;;;;5.67;5.27;;;;;;;21.60;61.67;102309.41;4972499;28;97149;-82
2023/06/24 07:35:49;;;;;;;6.80;5.13;;;;;;;21.64;61.43;102293.03;4982133;28;97994;-83
2023/06/24 07:38:14;;;;;;;5.20;4.80;;;;;;;21.70;61.47;102293.72;4987446;28;97307;-82
2023/06/24 07:40:40;;;;;;;4.97;4.57;;;;;;;21.79;61.49;102293.31;4986946;28;97414;-82
2023/06/24 07:43:05;;;;;;;5.77;5.27;;;;;;;21.88;61.09;102292.22;4973781;28;97300;-83
2023/06/24 07:45:30;;;;;;;6.10;5.47;;;;;;;21.91;61.17;102299.56;4987446;28;111013;-81
2023/06/24 07:47:56;;;;;;;6.40;5.07;;;;;;;22.00;60.97;102291.50;4972894;28;100639;-82
2023/06/24 07:50:21;;;;;;;4.70;4.30;;;;;;;22.08;60.75;102298.00;4987475;28;97189;-82
2023/06/24 07:52:46;;;;;;;4.90;4.50;;;;;;;22.12;60.61;102297.69;4985323;28;97068;-81
2023/06/24 07:55:12;;;;;;;5.77;4.80;;;;;;;22.17;60.29;102294.06;4987156;28;97932;-83
2023/06/24 07:57:37;;;;;;;4.30;3.70;;;;;;;22.20;60.03;102288.13;4983594;28;96988;-84
2023/06/24 08:00:09;;;;;;;4.00;3.60;;;;;;;22.29;59.79;102307.34;4983401;28;96794;-83
2023/06/24 08:02:34;;;;;;;4.33;4.00;;;;;;;22.36;59.70;102301.13;4965629;28;96894;-82
2023/06/24 08:04:59;;;;;;;4.17;3.77;;;;;;;22.48;59.15;102301.69;4986490;28;97037;-82
2023/06/24 08:07:25;;;;;;;4.47;4.07;;;;;;;22.56;58.81;102313.03;4970672;28;100788;-82
2023/06/24 08:09:50;;;;;;;3.57;3.37;;;;;;;22.65;58.99;102304.22;4984526;28;97477;-83
2023/06/24 08:12:15;;;;;;;4.10;3.80;;;;;;;22.72;58.20;102303.56;4984926;28;97969;-82
2023/06/24 08:14:41;;;;;;;3.77;3.50;;;;;;;22.82;57.96;102293.44;4986083;28;101712;-83
2023/06/24 08:17:06;;;;;;;3.73;3.53;;;;;;;22.89;57.90;102287.19;4973475;28;100235;-83
2023/06/24 08:19:31;;;;;;;3.30;3.10;;;;;;;22.97;57.69;102297.25;4986380;28;97153;-82
2023/06/24 08:21:57;;;;;;;4.87;3.67;;;;;;;23.01;57.47;102292.06;4989757;28;97179;-82
2023/06/24 08:24:22;;;;;;;3.50;3.30;;;;;;;23.06;57.25;102332.56;4987098;28;97742;-82
2023/06/24 08:27:08;;;;;;;5.10;3.80;;;;;;;23.14;56.32;102296.91;4985262;28;97425;-82
2023/06/24 08:30:11;;;;;;;6.70;3.97;;;;;;;23.21;56.29;102298.28;4971005;28;97136;-83
2023/06/24 08:35:58;;;;;;;3.60;3.40;;;;;;;23.18;54.29;102294.50;4983310;28;97283;-82
2023/06/24 08:38:24;;;;;;;4.50;4.10;;;;;;;23.19;57.14;102301.66;4968283;28;99817;-83
2023/06/24 08:40:49;;;;;;;5.00;4.20;;;;;;;23.25;56.98;102293.09;4986947;28;97420;-81
2023/06/24 08:43:15;;;;;;;4.20;3.90;;;;;;;23.38;56.93;102296.69;4966743;28;96930;-82
2023/06/24 08:45:40;;;;;;;3.73;3.43;;;;;;;23.51;56.68;102288.22;4983809;28;98075;-82
2023/06/24 08:48:06;;;;;;;4.10;3.70;;;;;;;23.64;56.71;102301.47;4980749;28;97604;-82
2023/06/24 08:50:36;;;;;;;4.43;3.90;;;;;;;23.73;56.60;102284.91;4981754;28;97011;-82
2023/06/24 08:53:06;;;;;;;4.40;4.10;;;;;;;23.79;56.25;102288.34;4981359;28;97385;-82
2023/06/24 08:55:36;;;;;;;4.37;4.07;;;;;;;23.90;56.12;102280.94;4988463;28;97725;-81
2023/06/24 08:58:02;;;;;;;5.10;4.67;;;;;;;24.02;55.96;102291.41;4984385;28;97925;-81
2023/06/24 09:00:28;;;;;;;4.50;4.10;;;;;;;24.08;55.58;102280.81;4987446;28;97104;-82
2023/06/24 09:02:53;;;;;;;5.60;4.40;;;;;;;24.19;55.76;102269.28;4985239;28;97017;-82
2023/06/24 09:05:19;;;;;;;4.30;4.00;;;;;;;24.31;55.40;102276.13;4987802;28;97528;-82
2023/06/24 09:07:44;;;;;;;5.40;4.90;;;;;;;24.42;55.30;102273.03;4986685;28;97470;-81
2023/06/24 09:10:09;;;;;;;5.00;4.50;;;;;;;24.48;55.24;102270.84;4989946;28;97210;-84
2023/06/24 09:12:35;;;;;;;4.80;4.40;;;;;;;24.53;55.02;102278.34;4985450;28;97225;-83
2023/06/24 09:15:02;;;;;;;4.80;4.30;;;;;;;24.56;54.82;102273.69;4986190;28;97547;-82
2023/06/24 09:17:28;;;;;;;4.30;4.00;;;;;;;24.62;54.73;102265.13;4985173;28;97157;-81
2023/06/24 09:19:54;;;;;;;4.30;3.90;;;;;;;24.77;54.19;102268.78;4968269;28;97264;-83
2023/06/24 09:22:19;;;;;;;4.30;4.00;;;;;;;24.88;54.26;102257.22;4983965;28;97024;-81
2023/06/24 09:24:46;;;;;;;4.17;3.83;;;;;;;25.02;53.78;102263.50;4981916;28;98646;-83
2023/06/24 09:27:14;;;;;;;4.47;4.07;;;;;;;25.14;54.08;102259.78;4967908;28;99394;-83
2023/06/24 09:29:41;;;;;;;3.93;3.57;;;;;;;25.29;53.44;102245.75;4986962;28;97650;-81
2023/06/24 09:32:07;;;;;;;3.70;3.30;;;;;;;25.45;53.46;102260.69;4972249;28;99749;-81
2023/06/24 09:34:32;;;;;;;4.20;3.90;;;;;;;25.59;53.33;102269.75;4987927;28;98634;-81
2023/06/24 09:36:59;;;;;;;4.03;3.63;;;;;;;25.76;52.87;102265.09;4984173;28;97787;-80
2023/06/24 09:39:30;;;;;;;3.43;3.23;;;;;;;25.89;52.90;102256.47;4974083;28;97212;-80
2023/06/24 09:41:59;;;;;;;4.23;3.90;;;;;;;25.92;52.58;102254.59;4987387;28;97162;-83
2023/06/24 09:44:29;;;;;;;5.67;3.67;;;;;;;25.93;52.47;102265.31;4989840;28;97197;-82
2023/06/24 09:46:58;;;;;;;3.80;3.50;;;;;;;25.93;52.26;102256.84;4983249;28;97242;-82
2023/06/24 09:49:24;;;;;;;3.57;3.37;;;;;;;25.99;52.37;102270.78;4975857;28;97370;-83
2023/06/24 09:51:59;;;;;;;3.83;3.43;;;;;;;26.13;51.63;102252.38;4990173;28;97106;-82
2023/06/24 09:54:27;;;;;;;5.13;3.10;;;;;;;26.28;51.97;102251.63;4987490;28;97770;-82
2023/06/24 09:56:54;;;;;;;3.50;3.30;;;;;;;26.37;51.67;102239.75;4972985;28;99648;-79
2023/06/24 09:59:21;;;;;;;3.83;3.53;;;;;;;26.44;51.34;102244.66;4979484;28;97248;-81
2023/06/24 10:01:47;;;;;;;3.50;3.20;;;;;;;26.37;51.24;102268.75;4991404;28;98430;-82
2023/06/24 10:04:17;;;;;;;3.23;3.03;;;;;;;26.50;50.70;102245.19;4992307;28;97314;-81
2023/06/24 10:06:42;;;;;;;4.47;3.10;;;;;;;26.53;50.97;102247.66;4995900;28;98615;-81
2023/06/24 10:09:08;;;;;;;3.17;2.97;;;;;;;26.61;51.19;102237.09;4992343;28;97622;-80
2023/06/24 10:11:34;;;;;;;3.13;2.93;;;;;;;26.68;50.55;102230.69;4982716;28;97294;-80
2023/06/24 10:13:59;;;;;;;3.20;2.90;;;;;;;26.75;50.54;102243.31;4988830;28;98210;-82
2023/06/24 10:16:25;;;;;;;4.20;3.50;;;;;;;26.86;50.17;102228.03;4987287;28;97308;-82
2023/06/24 10:18:50;;;;;;;8.87;2.90;;;;;;;26.92;50.16;102237.03;4994793;28;97535;-83
2023/06/24 10:21:16;;;;;;;4.10;3.10;;;;;;;26.99;50.28;102216.50;4992611;28;96975;-83
2023/06/24 10:23:47;;;;;;;3.13;2.93;;;;;;;27.09;49.80;102225.84;4991928;28;97955;-81
2023/06/24 10:26:30;;;;;;;3.47;3.17;;;;;;;27.08;48.47;102213.06;4987450;28;102411;-82
2023/06/24 10:29:04;;;;;;;3.10;2.90;;;;;;;27.01;47.84;102208.94;4992860;28;96903;-79
2023/06/24 10:31:39;;;;;;;3.10;2.90;;;;;;;26.99;48.17;102205.19;4996119;28;96874;-82
2023/06/24 10:34:23;;;;;;;2.90;2.70;;;;;;;27.10;48.40;102199.88;4992243;28;99203;-81
2023/06/24 10:37:14;;;;;;;3.60;3.00;;;;;;;27.20;49.13;102206.41;4991875;28;97187;-82
2023/06/24 10:39:57;;;;;;;2.90;2.70;;;;;;;27.25;48.24;102210.34;4976881;28;96992;-81
2023/06/24 10:42:31;;;;;;;3.07;2.70;;;;;;;27.38;48.62;102195.97;4995481;28;97368;-81
2023/06/24 10:45:01;;;;;;;2.60;2.50;;;;;;;27.40;47.99;102202.56;4993606;28;98696;-81
2023/06/24 10:47:29;;;;;;;2.67;2.47;;;;;;;27.36;48.17;102193.72;4968568;28;98061;-79
2023/06/24 10:49:54;;;;;;;2.83;2.60;;;;;;;27.39;48.54;102197.50;4963664;28;97190;-81
2023/06/24 10:52:22;;;;;;;2.80;2.60;;;;;;;27.50;48.52;102185.72;4987340;28;96806;-81
2023/06/24 10:54:49;;;;;;;3.50;3.20;;;;;;;27.62;48.10;102180.34;4988625;28;98627;-80
2023/06/24 10:57:15;;;;;;;3.03;2.83;;;;;;;27.62;47.98;102186.78;4977224;28;99157;-82
2023/06/24 10:59:41;;;;;;;2.97;2.77;;;;;;;27.66;47.78;102175.03;4970547;28;97754;-81
2023/06/24 11:02:13;;;;;;;3.00;2.70;;;;;;;27.77;46.80;102175.34;4985995;28;97409;-82
2023/06/24 11:04:46;;;;;;;2.70;2.50;;;;;;;27.91;47.30;102172.97;4988682;28;97966;-82
2023/06/24 11:07:12;;;;;;;3.47;3.17;;;;;;;28.00;47.31;102187.25;4986925;28;97865;-81
2023/06/24 11:09:38;;;;;;;2.47;2.37;;;;;;;28.06;47.60;102173.63;4991943;28;97187;-78
2023/06/24 11:12:04;;;;;;;3.40;3.10;;;;;;;28.14;47.31;102177.13;4984816;28;97367;-83
2023/06/24 11:14:29;;;;;;;2.83;2.60;;;;;;;28.16;46.89;102159.53;4987198;28;97537;-81
2023/06/24 11:16:54;;;;;;;4.50;2.80;;;;;;;28.20;46.92;102154.97;4986830;28;97058;-81
2023/06/24 11:19:20;;;;;;;3.23;2.93;;;;;;;28.19;47.02;102152.72;4991876;28;97378;-81
2023/06/24 11:21:45;;;;;;;4.50;2.80;;;;;;;28.28;46.78;102154.16;4987371;28;98734;-82
2023/06/24 11:24:11;;;;;;;2.83;2.57;;;;;;;28.31;46.59;102158.66;4974342;28;99357;-80
2023/06/24 11:26:36;;;;;;;2.70;2.50;;;;;;;28.34;46.41;102158.25;4976970;28;99440;-81
2023/06/24 11:29:10;;;;;;;3.37;3.07;;;;;;;28.32;45.24;102155.25;4987013;28;97417;-81